Time;durP1;ratioP1;P1;durP2;ratioP2;P2;SDS_P1;SDS_P2;PMS_P1;PMS_P2;Temp;Humidity;BMP_temperature;BMP_pressure;BME280_temperature;BME280_humidity;BME280_pressure;Samples;Min_cycle;Max_cycle;Signal;HPM_P1;HPM_P2
2022/08/28 00:01:06;;;;;;;16.60;9.90;;;;;;;18.67;82.24;99459.36;105394;1271;68354;-75
2022/08/28 00:03:54;;;;;;;18.00;10.50;;;;;;;18.63;82.11;99460.15;105090;1271;74360;-74
2022/08/28 00:06:43;;;;;;;16.00;9.70;;;;;;;18.61;82.10;99457.85;105090;1271;59634;-74
2022/08/28 00:09:31;;;;;;;18.80;10.70;;;;;;;18.62;81.89;99458.17;105090;1271;62377;-74
2022/08/28 00:12:19;;;;;;;18.20;10.10;;;;;;;18.59;82.07;99457.52;105136;1271;74515;-73
2022/08/28 00:15:13;;;;;;;19.80;10.60;;;;;;;18.58;82.35;99459.38;105277;1271;69595;-75
2022/08/28 00:18:02;;;;;;;19.20;10.70;;;;;;;18.52;83.53;99455.48;105281;1271;74410;-74
2022/08/28 00:20:51;;;;;;;18.50;10.00;;;;;;;18.48;84.40;99457.52;105014;1271;60283;-73
2022/08/28 00:23:42;;;;;;;18.30;10.30;;;;;;;18.43;84.48;99457.21;105066;1271;61898;-73
2022/08/28 00:29:37;;;;;;;17.40;9.10;;;;;;;18.36;84.38;99455.70;105328;1271;69607;-73
2022/08/28 00:32:25;;;;;;;18.90;10.10;;;;;;;18.34;84.70;99453.39;105036;1271;74708;-76
2022/08/28 00:35:16;;;;;;;15.60;9.20;;;;;;;18.32;84.71;99455.77;105291;1271;59771;-73
2022/08/28 00:38:04;;;;;;;19.60;10.00;;;;;;;18.29;83.59;99457.27;105306;1271;62459;-73
2022/08/28 00:41:00;;;;;;;18.30;9.40;;;;;;;18.26;83.18;99450.05;104989;1271;73690;-74
2022/08/28 00:44:05;;;;;;;20.40;9.10;;;;;;;18.23;83.24;99452.53;105084;1270;69587;-74
2022/08/28 00:46:55;;;;;;;18.50;10.10;;;;;;;18.20;82.97;99447.55;104961;1271;71299;-73
2022/08/28 00:49:51;;;;;;;19.70;9.00;;;;;;;18.16;82.57;99446.92;105267;1271;61165;-73
2022/08/28 00:52:40;;;;;;;18.10;9.10;;;;;;;18.13;82.58;99440.48;105149;1271;61279;-73
2022/08/28 00:55:29;;;;;;;18.90;9.30;;;;;;;18.12;82.38;99438.80;105074;1271;74630;-73
2022/08/28 00:58:19;;;;;;;16.50;9.10;;;;;;;18.11;82.78;99438.55;105133;1271;67957;-74
2022/08/28 01:01:06;;;;;;;17.00;9.80;;;;;;;18.10;83.68;99437.95;105080;1271;74352;-74
2022/08/28 01:03:54;;;;;;;17.30;9.10;;;;;;;18.09;83.47;99434.66;105047;1271;59769;-74
2022/08/28 01:06:52;;;;;;;17.50;9.60;;;;;;;18.06;83.23;99433.02;105257;1271;61603;-73
2022/08/28 01:09:49;;;;;;;16.80;9.50;;;;;;;18.03;82.97;99435.40;104880;1271;74685;-73
2022/08/28 01:12:38;;;;;;;15.80;9.00;;;;;;;17.99;83.34;99429.17;104802;1274;68097;-75
2022/08/28 01:15:33;;;;;;;18.60;9.80;;;;;;;17.97;83.63;99432.90;105067;1271;74207;-74
2022/08/28 01:18:23;;;;;;;15.50;9.40;;;;;;;17.95;83.38;99435.08;105316;1271;61330;-74
2022/08/28 01:21:43;;;;;;;19.50;10.60;;;;;;;17.94;83.02;99435.94;105317;1271;62094;-74
2022/08/28 01:24:32;;;;;;;19.90;9.80;;;;;;;17.91;83.25;99436.27;105038;1271;73115;-74
2022/08/28 01:27:21;;;;;;;18.50;9.40;;;;;;;17.87;83.03;99433.67;105039;1271;67812;-73
2022/08/28 01:30:16;;;;;;;16.80;10.30;;;;;;;17.85;83.39;99434.83;105301;1271;73676;-75
2022/08/28 01:33:04;;;;;;;20.00;10.10;;;;;;;17.82;83.45;99436.57;105079;1271;60027;-74
2022/08/28 01:35:52;;;;;;;20.60;9.60;;;;;;;17.80;83.88;99434.50;105262;1271;59621;-74
2022/08/28 01:38:44;;;;;;;17.60;10.30;;;;;;;17.77;84.13;99428.34;105316;1271;73567;-73
2022/08/28 01:41:32;;;;;;;18.00;9.30;;;;;;;17.75;83.99;99428.77;104986;1271;67771;-77
2022/08/28 01:44:24;;;;;;;17.30;9.60;;;;;;;17.75;84.68;99428.62;105051;1271;74381;-75
2022/08/28 01:47:12;;;;;;;16.90;9.30;;;;;;;17.74;84.51;99427.66;105091;1271;59690;-73
2022/08/28 01:50:00;;;;;;;18.80;9.10;;;;;;;17.73;84.33;99428.70;105353;1271;60537;-74
2022/08/28 01:52:48;;;;;;;18.80;10.20;;;;;;;17.69;84.18;99428.34;105102;1271;74575;-76
2022/08/28 01:55:36;;;;;;;18.90;9.10;;;;;;;17.67;84.79;99429.70;105226;1271;68628;-74
2022/08/28 01:58:26;;;;;;;15.70;9.20;;;;;;;17.65;84.33;99428.00;105179;1271;74434;-74
2022/08/28 02:01:20;;;;;;;16.00;9.70;;;;;;;17.61;84.19;99430.60;104109;1271;1619558;-75
2022/08/28 02:04:09;;;;;;;16.30;8.60;;;;;;;17.58;83.96;99434.38;105087;1271;62040;-75
2022/08/28 02:06:58;;;;;;;18.20;9.30;;;;;;;17.55;83.94;99431.08;105114;1271;74671;-74
2022/08/28 02:09:45;;;;;;;17.90;10.00;;;;;;;17.56;83.80;99429.46;105096;1271;69598;-75
2022/08/28 02:12:34;;;;;;;16.90;9.00;;;;;;;17.55;83.45;99427.21;105160;1271;74386;-75
2022/08/28 02:15:24;;;;;;;21.30;9.80;;;;;;;17.54;82.86;99426.90;104999;1271;59694;-73
2022/08/28 02:18:13;;;;;;;18.50;8.90;;;;;;;17.55;82.54;99427.21;105098;1271;60777;-74
2022/08/28 02:21:01;;;;;;;17.00;9.30;;;;;;;17.55;82.40;99427.01;105126;1271;72999;-73
2022/08/28 02:23:49;;;;;;;19.30;9.70;;;;;;;17.55;82.42;99429.34;105085;1271;69580;-74
2022/08/28 02:26:37;;;;;;;20.20;10.00;;;;;;;17.55;82.30;99425.73;105157;1271;73357;-75
2022/08/28 02:29:26;;;;;;;18.00;9.30;;;;;;;17.56;82.45;99425.95;105148;1271;59771;-76
2022/08/28 02:32:16;;;;;;;16.20;9.40;;;;;;;17.57;82.87;99426.30;105098;1270;61040;-75
2022/08/28 02:35:07;;;;;;;16.00;9.70;;;;;;;17.56;82.95;99426.70;105315;1271;73328;-77
2022/08/28 02:37:59;;;;;;;17.80;9.80;;;;;;;17.56;82.80;99430.01;105303;1271;68433;-75
2022/08/28 02:40:48;;;;;;;17.10;9.60;;;;;;;17.55;82.73;99422.40;105156;1271;73150;-73
2022/08/28 02:43:38;;;;;;;18.30;9.50;;;;;;;17.53;82.59;99424.88;105038;1271;60432;-68
2022/08/28 02:46:26;;;;;;;18.40;9.50;;;;;;;17.53;82.76;99429.74;104907;1271;60318;-74
2022/08/28 02:49:14;;;;;;;18.70;9.70;;;;;;;17.54;82.95;99427.15;105000;1270;74833;-73
2022/08/28 02:52:05;;;;;;;17.80;9.50;;;;;;;17.53;82.93;99429.88;105240;1271;68043;-73
2022/08/28 02:54:53;;;;;;;18.70;9.50;;;;;;;17.53;82.81;99425.91;105094;1271;74414;-73
2022/08/28 02:57:42;;;;;;;17.50;9.40;;;;;;;17.53;82.58;99426.11;105050;1271;59614;-72
2022/08/28 03:00:30;;;;;;;16.10;9.20;;;;;;;17.53;82.61;99424.33;105075;1271;60987;-74
2022/08/28 03:03:19;;;;;;;17.90;9.70;;;;;;;17.53;82.89;99423.55;105154;1271;73523;-73
2022/08/28 03:06:10;;;;;;;16.40;9.00;;;;;;;17.54;83.31;99423.34;105107;1271;69586;-73
2022/08/28 03:08:59;;;;;;;18.20;9.10;;;;;;;17.55;83.69;99424.89;105375;1271;71764;-74
2022/08/28 03:11:46;;;;;;;16.30;8.80;;;;;;;17.54;82.93;99417.77;105027;1271;61122;-74
2022/08/28 03:14:35;;;;;;;15.20;8.80;;;;;;;17.56;83.19;99420.20;105082;1271;59788;-74
2022/08/28 03:17:23;;;;;;;16.90;8.80;;;;;;;17.57;83.07;99418.73;105093;1271;74630;-73
2022/08/28 03:20:13;;;;;;;15.50;9.10;;;;;;;17.56;83.21;99420.20;105036;1271;67679;-73
2022/08/28 03:23:35;;;;;;;16.60;9.70;;;;;;;17.55;83.24;99418.44;105063;1271;73366;-73
2022/08/28 03:26:20;;;;;;;17.10;9.50;;;;;;;17.53;82.80;99417.90;105066;1270;60402;-74
2022/08/28 03:29:08;;;;;;;15.20;8.80;;;;;;;17.53;82.75;99416.84;105340;1271;59653;-74
2022/08/28 03:31:56;;;;;;;17.50;8.80;;;;;;;17.53;82.63;99417.13;105075;1271;73504;-75
2022/08/28 03:34:44;;;;;;;15.40;9.20;;;;;;;17.55;82.20;99415.90;105059;1271;69517;-75
2022/08/28 03:37:32;;;;;;;16.60;9.40;;;;;;;17.59;81.89;99418.67;105254;1271;73579;-74
2022/08/28 03:40:20;;;;;;;14.90;8.90;;;;;;;17.63;81.39;99421.58;105050;1271;59735;-74
2022/08/28 03:43:20;;;;;;;18.10;9.00;;;;;;;17.66;80.63;99416.59;105292;1271;62017;-75
2022/08/28 03:46:13;;;;;;;16.20;9.10;;;;;;;17.69;80.07;99419.56;105353;1271;74969;-74
2022/08/28 03:49:03;;;;;;;15.00;8.70;;;;;;;17.72;79.82;99419.07;105085;1271;67888;-75
2022/08/28 03:51:52;;;;;;;15.70;8.50;;;;;;;17.75;78.84;99417.79;105056;1273;74251;-75
2022/08/28 03:54:39;;;;;;;16.00;8.30;;;;;;;17.80;77.89;99415.83;104849;1274;61635;-73
2022/08/28 03:57:29;;;;;;;16.70;8.20;;;;;;;17.85;78.11;99416.13;104893;1272;59587;-75
2022/08/28 04:00:19;;;;;;;16.10;9.20;;;;;;;17.90;77.67;99412.86;104839;1273;73975;-76
2022/08/28 04:03:07;;;;;;;14.40;8.40;;;;;;;17.95;77.07;99414.78;104901;1273;69975;-75
2022/08/28 04:05:55;;;;;;;19.60;8.90;;;;;;;18.00;76.54;99416.69;105154;1274;72930;-76
2022/08/28 04:08:44;;;;;;;17.30;10.00;;;;;;;18.05;76.33;99419.30;105150;1273;60354;-75
2022/08/28 04:11:41;;;;;;;20.00;9.90;;;;;;;18.10;75.29;99414.64;104869;1274;62021;-75
2022/08/28 04:14:29;;;;;;;20.10;10.50;;;;;;;18.16;75.12;99415.69;104961;1273;73843;-75
2022/08/28 04:17:17;;;;;;;19.50;10.40;;;;;;;18.23;74.36;99423.28;105328;1274;67254;-74
2022/08/28 04:20:07;;;;;;;18.70;9.70;;;;;;;18.31;73.62;99421.36;104886;1274;72734;-76
2022/08/28 04:22:55;;;;;;;18.10;9.50;;;;;;;18.39;72.97;99422.40;104865;1274;60092;-75
2022/08/28 04:25:47;;;;;;;15.70;9.00;;;;;;;18.47;72.49;99426.73;105180;1274;62114;-74
2022/08/28 04:28:37;;;;;;;14.70;9.00;;;;;;;18.54;72.15;99427.86;105244;1274;73679;-76
2022/08/28 04:31:27;;;;;;;23.00;11.90;;;;;;;18.61;72.29;99432.59;105193;1274;68526;-75
2022/08/28 04:34:18;;;;;;;19.10;10.30;;;;;;;18.67;72.44;99431.30;104878;1274;73391;-76
2022/08/28 04:37:07;;;;;;;17.90;10.80;;;;;;;18.73;72.20;99431.46;104890;1274;59685;-77
2022/08/28 04:39:54;;;;;;;18.60;10.10;;;;;;;18.78;71.65;99428.36;105283;1274;59740;-76
2022/08/28 04:42:43;;;;;;;15.00;8.90;;;;;;;18.83;71.40;99424.29;105057;1274;73800;-76
2022/08/28 04:45:32;;;;;;;15.70;9.70;;;;;;;18.89;71.19;99423.80;104974;1274;68135;-75
2022/08/28 04:48:21;;;;;;;15.20;9.70;;;;;;;18.95;71.42;99426.99;105513;1272;73888;-74
2022/08/28 04:51:12;;;;;;;17.90;9.90;;;;;;;19.01;71.01;99430.17;105176;1271;60019;-75
2022/08/28 04:54:02;;;;;;;16.00;8.90;;;;;;;19.08;71.04;99436.39;105013;1274;61897;-77
2022/08/28 04:56:50;;;;;;;17.60;9.10;;;;;;;19.16;70.76;99431.13;105169;1271;74984;-77
2022/08/28 04:59:40;;;;;;;16.30;9.10;;;;;;;19.23;70.27;99430.78;105340;1271;68519;-76
2022/08/28 05:02:28;;;;;;;15.70;8.60;;;;;;;19.32;69.53;99432.30;105125;1271;74566;-77
2022/08/28 05:05:17;;;;;;;15.60;8.30;;;;;;;19.41;69.08;99426.77;105197;1272;60182;-75
2022/08/28 05:08:08;;;;;;;14.80;8.60;;;;;;;19.48;68.49;99426.52;105060;1271;61090;-76
2022/08/28 05:10:58;;;;;;;16.90;8.10;;;;;;;19.58;68.15;99423.70;105143;1271;72112;-76
2022/08/28 05:13:47;;;;;;;14.80;8.40;;;;;;;19.67;67.57;99426.31;105193;1271;68604;-76
2022/08/28 05:16:48;;;;;;;13.60;8.30;;;;;;;19.78;67.22;99426.58;105144;1271;74665;-75
2022/08/28 05:19:36;;;;;;;13.10;8.60;;;;;;;19.90;66.90;99429.45;105350;1271;59733;-76
2022/08/28 05:22:27;;;;;;;15.60;8.40;;;;;;;20.02;66.77;99434.92;105129;1271;62013;-75
2022/08/28 05:25:15;;;;;;;16.80;8.80;;;;;;;20.15;66.46;99430.24;105085;1271;74996;-75
2022/08/28 05:28:04;;;;;;;14.70;8.80;;;;;;;20.28;66.04;99433.12;105142;1271;69985;-77
2022/08/28 05:31:09;;;;;;;16.90;9.70;;;;;;;20.41;65.70;99431.37;105298;1271;73836;-76
2022/08/28 05:34:03;;;;;;;17.40;9.50;;;;;;;20.56;65.97;99433.90;105362;1271;59682;-75
2022/08/28 05:36:54;;;;;;;15.20;9.10;;;;;;;20.72;66.78;99439.05;105100;1271;61768;-75
2022/08/28 05:39:42;;;;;;;17.50;9.10;;;;;;;20.88;66.99;99436.00;105137;1271;74517;-74
2022/08/28 05:42:29;;;;;;;16.90;10.70;;;;;;;21.03;66.91;99435.57;105217;1271;69559;-74
2022/08/28 05:45:22;;;;;;;16.40;9.70;;;;;;;21.22;66.72;99436.73;105023;1271;73378;-76
2022/08/28 05:48:10;;;;;;;17.90;10.60;;;;;;;21.41;66.22;99439.95;105048;1271;60245;-75
2022/08/28 05:51:16;;;;;;;15.50;8.90;;;;;;;21.64;64.68;99436.55;105437;1271;59673;-74
2022/08/28 05:54:06;;;;;;;17.60;8.70;;;;;;;21.94;63.21;99434.17;105170;1271;73621;-76
2022/08/28 05:56:54;;;;;;;18.40;9.30;;;;;;;22.23;62.75;99433.70;105099;1271;69622;-74
2022/08/28 05:59:43;;;;;;;16.70;9.40;;;;;;;22.55;62.06;99436.36;105150;1271;74478;-76
2022/08/28 06:02:33;;;;;;;23.40;15.50;;;;;;;22.90;61.39;99434.65;105103;1271;59879;-75
2022/08/28 06:05:21;;;;;;;17.30;9.10;;;;;;;23.29;60.79;99443.95;105385;1271;61887;-72
2022/08/28 06:08:09;;;;;;;16.90;9.80;;;;;;;23.67;59.42;99445.42;105202;1271;74754;-73
2022/08/28 06:11:01;;;;;;;17.60;9.80;;;;;;;24.07;58.29;99443.89;105173;1271;69758;-73
2022/08/28 06:13:49;;;;;;;15.30;8.50;;;;;;;24.56;56.70;99445.95;105106;1271;74911;-74
2022/08/28 06:16:40;;;;;;;14.30;7.70;;;;;;;25.10;54.72;99450.93;105117;1271;60346;-71
2022/08/28 06:19:32;;;;;;;14.50;9.40;;;;;;;25.68;53.36;99445.10;105225;1271;61822;-72
2022/08/28 06:22:19;;;;;;;17.10;8.60;;;;;;;26.59;52.10;99445.84;105143;1271;74680;-74
2022/08/28 06:25:11;;;;;;;14.50;8.10;;;;;;;27.85;48.41;99443.23;105090;1271;69841;-71
2022/08/28 06:27:58;;;;;;;13.60;8.00;;;;;;;29.16;45.62;99440.64;105083;1271;71911;-72
2022/08/28 06:30:48;;;;;;;13.20;7.80;;;;;;;30.41;42.31;99438.48;105022;1271;60285;-72
2022/08/28 06:33:58;;;;;;;36.40;29.30;;;;;;;31.50;39.42;99436.48;105382;1271;62519;-72
2022/08/28 06:36:46;;;;;;;18.20;11.80;;;;;;;32.50;37.78;99434.94;104985;1271;74693;-71
2022/08/28 06:39:40;;;;;;;15.20;7.70;;;;;;;33.53;36.19;99436.70;105461;1271;69201;-72
2022/08/28 06:42:30;;;;;;;20.40;10.30;;;;;;;34.51;34.26;99436.89;105112;1271;72689;-70
2022/08/28 06:45:18;;;;;;;13.00;8.00;;;;;;;35.29;32.37;99429.87;105208;1271;60324;-71
2022/08/28 06:48:07;;;;;;;14.00;7.00;;;;;;;35.96;30.87;99431.94;105168;1271;60844;-73
2022/08/28 06:50:58;;;;;;;10.40;6.90;;;;;;;36.52;29.67;99428.13;105385;1271;74714;-71
2022/08/28 06:53:48;;;;;;;10.90;6.00;;;;;;;37.04;28.46;99426.60;104793;1275;68678;-72
2022/08/28 06:56:39;;;;;;;10.90;6.10;;;;;;;37.58;27.82;99426.04;104792;1274;74388;-70
2022/08/28 06:59:27;;;;;;;9.60;5.70;;;;;;;38.04;26.83;99430.73;104748;1274;59717;-71
2022/08/28 07:02:16;;;;;;;12.80;6.50;;;;;;;38.43;26.03;99434.67;104809;1274;61067;-72
2022/08/28 07:05:07;;;;;;;13.30;5.90;;;;;;;38.65;25.41;99433.78;104800;1274;74785;-72
2022/08/28 07:07:55;;;;;;;10.60;5.60;;;;;;;38.86;25.82;99438.73;104841;1274;68080;-71
2022/08/28 07:10:43;;;;;;;13.40;5.50;;;;;;;39.17;25.31;99439.05;104869;1274;74863;-70
2022/08/28 07:13:31;;;;;;;13.40;5.90;;;;;;;39.32;24.54;99440.60;104917;1274;59803;-71
2022/08/28 07:16:30;;;;;;;15.00;5.30;;;;;;;39.57;24.18;99437.70;105098;1274;61816;-72
2022/08/28 07:19:18;;;;;;;12.20;5.40;;;;;;;39.78;23.72;99438.42;104764;1276;74823;-70
2022/08/28 07:22:06;;;;;;;19.30;13.90;;;;;;;39.84;23.78;99431.95;104791;1277;69582;-71
2022/08/28 07:24:56;;;;;;;14.20;7.40;;;;;;;40.13;23.89;99434.81;104941;1272;74446;-70
2022/08/28 07:27:44;;;;;;;14.60;5.80;;;;;;;40.49;23.01;99434.52;105057;1271;59776;-72
2022/08/28 07:30:35;;;;;;;17.40;7.00;;;;;;;40.75;22.36;99434.48;105110;1271;62017;-71
2022/08/28 07:33:23;;;;;;;9.80;4.90;;;;;;;40.68;22.31;99429.89;105117;1271;73352;-71
2022/08/28 07:36:18;;;;;;;12.20;5.80;;;;;;;40.49;22.82;99427.80;105011;1271;68620;-70
2022/08/28 07:39:17;;;;;;;12.60;6.10;;;;;;;40.64;22.87;99426.58;105093;1271;73758;-71
2022/08/28 07:42:05;;;;;;;13.60;5.80;;;;;;;40.73;23.03;99426.52;105099;1271;59746;-73
2022/08/28 07:44:53;;;;;;;14.10;6.30;;;;;;;40.83;22.96;99428.20;105390;1271;60738;-70
2022/08/28 07:47:41;;;;;;;11.30;5.50;;;;;;;41.03;22.47;99429.21;105130;1271;73295;-73
2022/08/28 07:50:29;;;;;;;12.80;5.70;;;;;;;41.12;22.36;99427.09;105489;1271;69635;-71
2022/08/28 07:53:17;;;;;;;10.40;5.20;;;;;;;41.02;22.66;99427.34;105113;1271;73544;-71
2022/08/28 07:56:05;;;;;;;9.50;5.10;;;;;;;40.95;22.69;99429.87;105194;1271;59694;-71
2022/08/28 07:58:55;;;;;;;14.00;6.20;;;;;;;40.97;22.67;99428.10;105111;1271;61032;-71
2022/08/28 08:01:45;;;;;;;17.00;6.00;;;;;;;41.27;22.78;99426.30;105154;1271;73746;-71
2022/08/28 08:04:34;;;;;;;11.60;5.90;;;;;;;41.54;22.47;99426.50;105190;1271;68608;-71
2022/08/28 08:07:22;;;;;;;11.30;5.40;;;;;;;41.58;22.53;99430.40;105137;1271;74250;-73
2022/08/28 08:10:13;;;;;;;10.30;5.60;;;;;;;41.52;22.56;99433.15;105237;1271;59774;-74
2022/08/28 08:13:06;;;;;;;10.90;5.60;;;;;;;41.55;22.49;99431.17;105310;1271;61099;-73
2022/08/28 08:16:11;;;;;;;11.50;6.00;;;;;;;41.60;22.80;99429.04;105173;1271;73833;-73
2022/08/28 08:19:00;;;;;;;12.60;7.40;;;;;;;41.50;22.88;99426.22;105427;1271;68725;-72
2022/08/28 08:21:50;;;;;;;15.10;10.80;;;;;;;41.70;22.67;99428.75;105074;1271;74590;-72
2022/08/28 08:24:41;;;;;;;13.50;6.90;;;;;;;42.15;22.41;99428.51;105091;1271;59746;-70
2022/08/28 08:27:34;;;;;;;10.90;5.80;;;;;;;42.53;21.84;99430.91;105153;1271;62090;-70
2022/08/28 08:30:27;;;;;;;12.80;6.40;;;;;;;42.62;21.70;99431.97;105190;1271;74068;-72
2022/08/28 08:33:15;;;;;;;15.10;7.70;;;;;;;42.52;21.80;99434.28;105121;1271;68859;-71
2022/08/28 08:36:10;;;;;;;12.90;5.90;;;;;;;42.26;22.05;99433.44;105134;1271;71640;-73
2022/08/28 08:38:58;;;;;;;12.20;6.00;;;;;;;42.08;22.14;99430.42;105125;1271;59700;-71
2022/08/28 08:41:53;;;;;;;10.60;5.60;;;;;;;42.12;22.45;99424.42;105105;1271;62479;-72
2022/08/28 08:44:47;;;;;;;12.40;5.90;;;;;;;42.03;22.37;99428.41;105160;1271;74732;-72
2022/08/28 08:47:51;;;;;;;12.70;6.10;;;;;;;41.65;22.57;99428.27;105060;1271;69569;-71
2022/08/28 08:50:40;;;;;;;13.60;5.60;;;;;;;41.47;22.97;99427.36;105583;1271;73360;-72
2022/08/28 08:53:53;;;;;;;11.70;6.00;;;;;;;41.32;23.30;99423.70;104889;1273;60469;-72
2022/08/28 08:56:43;;;;;;;12.00;6.20;;;;;;;41.36;23.63;99426.89;105095;1271;61003;-72
2022/08/28 08:59:37;;;;;;;12.30;6.60;;;;;;;41.73;23.51;99426.33;104970;1271;73835;-73
2022/08/28 09:02:33;;;;;;;11.80;6.20;;;;;;;42.37;22.98;99433.30;105328;1271;69655;-72
2022/08/28 09:05:38;;;;;;;9.60;5.70;;;;;;;42.56;22.70;99432.11;105150;1271;71883;-71
2022/08/28 09:08:38;;;;;;;13.40;5.90;;;;;;;42.40;23.16;99433.96;105082;1271;60006;-70
2022/08/28 09:12:03;;;;;;;12.90;6.50;;;;;;;42.63;22.81;99434.66;105117;1271;61458;-71
2022/08/28 09:14:57;;;;;;;10.80;5.50;;;;;;;42.98;22.18;99439.91;105332;1271;75537;-72
2022/08/28 09:18:21;;;;;;;12.00;5.80;;;;;;;43.04;21.97;99434.50;105052;1271;69596;-72
2022/08/28 09:21:08;;;;;;;12.20;5.90;;;;;;;43.10;21.45;99434.45;105104;1271;72685;-70
2022/08/28 09:24:04;;;;;;;12.70;5.30;;;;;;;43.05;21.63;99433.73;105104;1271;59755;-72
2022/08/28 09:27:07;;;;;;;10.40;5.40;;;;;;;42.97;21.04;99430.30;104982;1271;60877;-71
2022/08/28 09:30:07;;;;;;;12.40;5.30;;;;;;;42.99;21.28;99427.45;105154;1271;73821;-71
2022/08/28 09:32:59;;;;;;;11.40;5.10;;;;;;;43.13;20.93;99423.91;105195;1271;68576;-72
2022/08/28 09:35:48;;;;;;;9.70;5.30;;;;;;;43.33;20.72;99427.06;104955;1272;73186;-71
2022/08/28 09:38:37;;;;;;;12.60;5.50;;;;;;;43.37;20.70;99427.25;105116;1271;59688;-73
2022/08/28 09:44:32;;;;;;;10.20;5.30;;;;;;;43.58;20.49;99420.16;105290;1271;75042;-72
2022/08/28 09:47:37;;;;;;;9.60;5.30;;;;;;;43.59;20.64;99424.37;105100;1271;68581;-73
2022/08/28 09:50:42;;;;;;;12.00;5.20;;;;;;;43.54;20.35;99417.98;105372;1271;72974;-72
2022/08/28 09:53:37;;;;;;;9.70;5.20;;;;;;;43.36;20.55;99423.44;105145;1274;59598;-72
2022/08/28 09:56:38;;;;;;;12.90;5.20;;;;;;;43.34;20.29;99424.27;105282;1271;59720;-73
2022/08/28 09:59:28;;;;;;;10.70;5.50;;;;;;;43.25;20.73;99424.20;105294;1271;72093;-75
2022/08/28 10:02:57;;;;;;;10.70;5.20;;;;;;;43.21;20.49;99425.02;105112;1271;69375;-73
2022/08/28 10:06:02;;;;;;;9.50;5.20;;;;;;;43.17;20.93;99426.36;104883;1277;74410;-72
2022/08/28 10:09:14;;;;;;;9.00;4.90;;;;;;;43.45;20.48;99426.14;104715;1278;59534;-72
2022/08/28 10:12:53;;;;;;;10.40;5.80;;;;;;;43.53;20.54;99425.09;104546;1279;61522;-73
2022/08/28 10:16:02;;;;;;;11.90;5.50;;;;;;;43.63;20.62;99422.33;104614;1279;73869;-73
2022/08/28 10:19:11;;;;;;;11.50;5.00;;;;;;;43.49;20.73;99424.64;104393;1279;68130;-74
2022/08/28 10:22:32;;;;;;;9.70;5.10;;;;;;;43.27;20.73;99419.68;104407;1279;74548;-73
2022/08/28 10:26:08;;;;;;;11.10;5.10;;;;;;;43.00;21.33;99420.56;104436;1279;59760;-73
2022/08/28 10:29:15;;;;;;;12.40;5.70;;;;;;;43.02;21.42;99424.36;104378;1279;60796;-73
2022/08/28 10:32:18;;;;;;;12.00;5.80;;;;;;;42.96;22.21;99422.73;104676;1279;73233;-69
2022/08/28 10:35:24;;;;;;;12.20;5.70;;;;;;;42.74;22.65;99423.97;104610;1279;69841;-74
2022/08/28 10:38:45;;;;;;;13.70;7.10;;;;;;;42.48;22.91;99422.34;104417;1279;71584;-72
2022/08/28 10:41:53;;;;;;;12.40;6.00;;;;;;;42.61;22.64;99424.77;104460;1278;59888;-73
2022/08/28 10:45:04;;;;;;;9.30;5.60;;;;;;;42.41;23.23;99428.66;104952;1271;60820;-73
2022/08/28 10:48:04;;;;;;;11.00;6.20;;;;;;;42.24;23.69;99425.39;105147;1271;73792;-73
2022/08/28 10:51:01;;;;;;;9.70;6.00;;;;;;;42.27;23.85;99426.37;105108;1271;69711;-73
2022/08/28 10:53:59;;;;;;;9.40;5.80;;;;;;;42.27;24.14;99426.60;105103;1271;71677;-72
2022/08/28 10:57:02;;;;;;;10.50;5.70;;;;;;;42.25;23.67;99428.53;105334;1271;59700;-73
2022/08/28 10:59:53;;;;;;;9.90;5.90;;;;;;;41.84;23.99;99424.97;105111;1271;60485;-73
2022/08/28 11:02:47;;;;;;;10.50;6.30;;;;;;;41.66;23.96;99424.41;105148;1270;74533;-73
2022/08/28 11:05:47;;;;;;;12.00;6.10;;;;;;;41.64;24.24;99430.77;105033;1271;68703;-73
2022/08/28 11:08:40;;;;;;;11.00;7.00;;;;;;;41.64;24.54;99431.75;105166;1271;74477;-72
2022/08/28 11:11:47;;;;;;;10.50;6.30;;;;;;;41.57;24.62;99427.95;105117;1271;59720;-74
2022/08/28 11:14:40;;;;;;;12.90;6.90;;;;;;;41.43;24.68;99432.98;104947;1274;60570;-77
2022/08/28 11:17:40;;;;;;;10.80;7.00;;;;;;;41.21;24.76;99435.73;105231;1271;75281;-73
2022/08/28 11:20:29;;;;;;;13.70;7.80;;;;;;;40.96;25.59;99434.85;105142;1271;67894;-74
2022/08/28 11:23:48;;;;;;;12.20;7.80;;;;;;;40.82;26.08;99432.77;105086;1271;74714;-73
2022/08/28 11:27:35;;;;;;;13.40;8.30;;;;;;;40.63;26.82;99437.50;105221;1271;59739;-69
2022/08/28 11:30:35;;;;;;;11.50;7.50;;;;;;;40.26;26.88;99439.65;104640;1279;61774;-70
2022/08/28 11:33:47;;;;;;;12.40;7.90;;;;;;;39.82;27.46;99438.71;104591;1279;74736;-71
2022/08/28 11:36:35;;;;;;;11.80;7.70;;;;;;;39.24;28.44;99442.13;104797;1279;68402;-73
2022/08/28 11:39:23;;;;;;;12.90;8.50;;;;;;;38.78;28.65;99447.83;104596;1279;72029;-73
2022/08/28 11:42:12;;;;;;;11.90;7.50;;;;;;;38.52;29.33;99452.73;104472;1279;59786;-70
2022/08/28 11:45:00;;;;;;;14.40;8.40;;;;;;;38.38;29.16;99451.40;104517;1279;62152;-74
2022/08/28 11:47:51;;;;;;;12.80;6.80;;;;;;;38.22;29.45;99454.16;104433;1279;74711;-73
2022/08/28 11:50:56;;;;;;;12.10;6.80;;;;;;;37.91;29.84;99456.00;104638;1279;67768;-72
2022/08/28 11:54:01;;;;;;;14.10;7.10;;;;;;;37.40;30.18;99460.88;104398;1279;74395;-75
2022/08/28 11:57:31;;;;;;;12.30;6.90;;;;;;;36.87;30.68;99461.13;104481;1279;59877;-72
2022/08/28 12:01:02;;;;;;;11.30;6.90;;;;;;;36.55;31.87;99463.38;104517;1279;59905;-72
2022/08/28 12:04:05;;;;;;;12.40;6.20;;;;;;;36.44;32.31;99458.34;104825;1271;73172;-73
2022/08/28 12:07:10;;;;;;;12.60;6.40;;;;;;;35.95;33.46;99461.62;105356;1271;68108;-73
2022/08/28 12:09:58;;;;;;;14.10;6.40;;;;;;;35.42;34.06;99465.53;105112;1271;71407;-72
2022/08/28 12:12:58;;;;;;;11.40;6.20;;;;;;;34.92;34.98;99464.09;105387;1271;59715;-73
2022/08/28 12:16:03;;;;;;;10.70;5.90;;;;;;;34.42;36.15;99467.42;105211;1271;61965;-72
2022/08/28 12:18:51;;;;;;;12.30;5.70;;;;;;;34.05;37.38;99469.81;105292;1271;73247;-74
2022/08/28 12:21:41;;;;;;;9.20;5.60;;;;;;;33.63;37.66;99468.14;105181;1271;69643;-72
2022/08/28 12:24:29;;;;;;;10.90;6.40;;;;;;;33.33;38.36;99473.24;105174;1271;72839;-74
2022/08/28 12:27:18;;;;;;;11.40;5.50;;;;;;;32.93;39.55;99475.91;105226;1271;59757;-74
2022/08/28 12:30:07;;;;;;;10.40;5.40;;;;;;;32.42;40.59;99482.15;105007;1271;62099;-72
2022/08/28 12:33:41;;;;;;;12.30;5.90;;;;;;;31.89;41.44;99487.23;105114;1271;73947;-73
2022/08/28 12:36:30;;;;;;;11.80;5.50;;;;;;;31.30;42.94;99492.79;105324;1274;67362;-73
2022/08/28 12:39:18;;;;;;;11.40;5.80;;;;;;;30.82;43.76;99495.98;105156;1271;74250;-73
2022/08/28 12:42:18;;;;;;;11.00;6.20;;;;;;;30.47;44.61;99499.29;105125;1271;59788;-71
2022/08/28 12:45:09;;;;;;;11.00;5.70;;;;;;;30.22;45.47;99496.26;105058;1271;59968;-72
2022/08/28 12:48:12;;;;;;;11.60;5.70;;;;;;;29.88;46.45;99498.88;105152;1271;72051;-72
2022/08/28 12:51:04;;;;;;;10.40;6.10;;;;;;;29.61;46.77;99504.53;105388;1271;68120;-72
2022/08/28 12:54:05;;;;;;;11.00;5.10;;;;;;;29.47;47.11;99504.33;105367;1271;74309;-71
2022/08/28 12:56:53;;;;;;;11.60;5.70;;;;;;;29.29;47.42;99499.53;105055;1271;59719;-73
2022/08/28 12:59:49;;;;;;;13.00;6.00;;;;;;;29.31;47.60;99498.46;104979;1274;61640;-71
2022/08/28 13:02:40;;;;;;;11.10;6.00;;;;;;;29.44;47.48;99497.23;104960;1271;74515;-72
2022/08/28 13:05:39;;;;;;;11.70;5.30;;;;;;;29.52;47.35;99496.07;105140;1271;69588;-72
2022/08/28 13:08:31;;;;;;;13.60;5.30;;;;;;;29.56;46.74;99497.90;105150;1271;72261;-75
2022/08/28 13:11:23;;;;;;;9.80;5.50;;;;;;;29.46;46.58;99503.07;105064;1271;59641;-72
2022/08/28 13:14:13;;;;;;;11.00;5.80;;;;;;;29.37;46.62;99497.34;105116;1271;59818;-73
2022/08/28 13:17:02;;;;;;;9.30;5.20;;;;;;;29.31;47.08;99495.89;105019;1271;71781;-73
2022/08/28 13:20:04;;;;;;;13.40;6.00;;;;;;;29.28;46.99;99492.90;105167;1271;65787;-74
2022/08/28 13:22:59;;;;;;;10.10;5.50;;;;;;;29.19;47.27;99495.89;105962;1271;74098;-74
2022/08/28 13:26:05;;;;;;;12.70;5.20;;;;;;;29.09;47.26;99498.02;105301;1271;59567;-71